Time;durP1;ratioP1;P1;durP2;ratioP2;P2;SDS_P1;SDS_P2;PMS_P1;PMS_P2;Temp;Humidity;BMP_temperature;BMP_pressure;BME280_temperature;BME280_humidity;BME280_pressure;Samples;Min_cycle;Max_cycle;Signal;HPM_P1;HPM_P2
2022/08/01 00:00:22;;;;;;;5.53;4.20;;;22.80;67.30;;;;;;5055166;28;20331;-70
2022/08/01 00:02:48;;;;;;;6.53;4.80;;;22.80;67.40;;;;;;5054567;28;20685;-70
2022/08/01 00:05:13;;;;;;;5.10;4.50;;;22.80;67.30;;;;;;5055042;28;20171;-70
2022/08/01 00:07:39;;;;;;;6.25;4.90;;;22.80;67.20;;;;;;5055098;28;20183;-69
2022/08/01 00:10:07;;;;;;;7.50;5.43;;;22.80;67.20;;;;;;5054142;28;20174;-68
2022/08/01 00:12:32;;;;;;;7.18;5.20;;;22.80;67.20;;;;;;5054009;28;20179;-69
2022/08/01 00:14:58;;;;;;;6.93;5.05;;;22.80;67.10;;;;;;5054794;28;20171;-69
2022/08/01 00:17:23;;;;;;;6.53;5.20;;;22.80;67.10;;;;;;5054251;28;20175;-70
2022/08/01 00:19:49;;;;;;;7.07;5.20;;;22.80;67.10;;;;;;5054655;28;20171;-71
2022/08/01 00:22:14;;;;;;;7.05;5.25;;;22.80;67.00;;;;;;5054783;28;20527;-70
2022/08/01 00:24:40;;;;;;;5.70;5.07;;;22.80;67.00;;;;;;5054195;28;20250;-71
2022/08/01 00:27:05;;;;;;;6.20;4.88;;;22.80;67.00;;;;;;5054497;28;20233;-70
2022/08/01 00:29:31;;;;;;;6.35;5.47;;;22.80;66.90;;;;;;5054792;28;20228;-69
2022/08/01 00:31:56;;;;;;;6.22;5.63;;;22.80;66.90;;;;;;5053482;28;20233;-69
2022/08/01 00:34:22;;;;;;;6.63;5.25;;;22.80;66.90;;;;;;5054686;28;20171;-68
2022/08/01 00:36:47;;;;;;;6.97;5.18;;;22.80;66.90;;;;;;5054373;28;20211;-69
2022/08/01 00:39:15;;;;;;;6.43;5.38;;;22.80;66.90;;;;;;5053646;28;20171;-69
2022/08/01 00:41:40;;;;;;;6.25;5.22;;;22.80;66.80;;;;;;5054459;28;20171;-70
2022/08/01 00:44:06;;;;;;;6.18;4.38;;;22.80;66.80;;;;;;5054380;28;20175;-70
2022/08/01 00:46:32;;;;;;;6.93;4.85;;;22.80;66.80;;;;;;5053680;28;20637;-70
2022/08/01 00:48:59;;;;;;;5.93;4.97;;;22.80;66.80;;;;;;5053965;28;20233;-69
2022/08/01 00:51:25;;;;;;;5.53;4.95;;;22.80;66.80;;;;;;5054033;28;20187;-69
2022/08/01 00:53:51;;;;;;;5.43;4.93;;;22.70;66.60;;;;;;5053211;28;20171;-69
2022/08/01 00:56:17;;;;;;;9.75;5.00;;;22.70;66.60;;;;;;5053964;28;20392;-69
2022/08/01 00:58:43;;;;;;;4.97;4.55;;;22.70;66.60;;;;;;5054154;28;20644;-69
2022/08/01 01:01:09;;;;;;;6.03;4.93;;;22.70;66.60;;;;;;5053240;28;20570;-70
2022/08/01 01:03:34;;;;;;;6.80;5.22;;;22.70;66.60;;;;;;5053944;28;20171;-70
2022/08/01 01:06:16;;;;;;;5.38;4.88;;;22.70;66.60;;;;;;5053816;28;20182;-71
2022/08/01 01:08:47;;;;;;;4.97;4.53;;;22.70;66.60;;;;;;5053806;28;20585;-69
2022/08/01 01:11:25;;;;;;;5.03;4.60;;;22.70;66.60;;;;;;5053988;28;20171;-69
2022/08/01 01:13:53;;;;;;;5.90;4.43;;;22.70;66.60;;;;;;5035306;28;20179;-69
2022/08/01 01:16:19;;;;;;;5.50;5.00;;;22.70;66.50;;;;;;5035789;28;20229;-71
2022/08/01 01:18:55;;;;;;;4.65;4.25;;;22.70;66.60;;;;;;5035715;28;20630;-73
2022/08/01 01:21:21;;;;;;;5.00;4.22;;;22.70;66.60;;;;;;5035023;28;20179;-73
2022/08/01 01:24:11;;;;;;;5.35;4.53;;;22.70;66.50;;;;;;5052983;28;20770;-71
2022/08/01 01:27:01;;;;;;;5.28;4.60;;;22.70;66.60;;;;;;5035933;28;20254;-69
2022/08/01 01:29:30;;;;;;;5.18;4.68;;;22.70;66.60;;;;;;5034827;28;20638;-69
2022/08/01 01:32:07;;;;;;;5.20;4.70;;;22.70;66.50;;;;;;5053143;28;20226;-69
2022/08/01 01:34:35;;;;;;;5.68;4.88;;;22.70;66.50;;;;;;5036611;28;20178;-68
2022/08/01 01:37:01;;;;;;;5.35;4.90;;;22.70;66.60;;;;;;5035658;28;20218;-69
2022/08/01 01:39:27;;;;;;;4.70;4.30;;;22.70;66.60;;;;;;5053373;28;20521;-69
2022/08/01 01:41:52;;;;;;;5.25;4.75;;;22.70;66.60;;;;;;5034742;28;20198;-70
2022/08/01 01:44:18;;;;;;;5.18;4.68;;;22.70;66.60;;;;;;5035195;28;20543;-70
2022/08/01 01:46:43;;;;;;;5.30;4.43;;;22.70;66.60;;;;;;5052871;28;20654;-69
2022/08/01 01:49:12;;;;;;;5.20;4.68;;;22.70;66.60;;;;;;5034790;28;20172;-69
2022/08/01 01:51:38;;;;;;;5.20;4.70;;;22.70;66.60;;;;;;5035746;28;20183;-68
2022/08/01 01:54:04;;;;;;;4.90;4.30;;;22.70;66.60;;;;;;5052776;28;20192;-70
2022/08/01 01:56:29;;;;;;;5.57;4.57;;;22.70;66.70;;;;;;5034418;28;20223;-68
2022/08/01 01:58:56;;;;;;;5.57;5.07;;;22.70;66.60;;;;;;5034932;28;20175;-69
2022/08/01 02:01:23;;;;;;;6.15;5.38;;;22.60;66.50;;;;;;5035360;28;20228;-70
2022/08/01 02:03:49;;;;;;;5.97;5.13;;;22.60;66.60;;;;;;5051914;28;20653;-69
2022/08/01 02:06:15;;;;;;;5.90;5.30;;;22.60;66.60;;;;;;5035203;28;20642;-70
2022/08/01 02:08:40;;;;;;;6.25;4.70;;;22.60;66.50;;;;;;5035153;28;20175;-68
2022/08/01 02:11:18;;;;;;;5.45;4.95;;;22.60;66.60;;;;;;5034113;28;20177;-68
2022/08/01 02:13:43;;;;;;;6.32;5.18;;;22.60;66.60;;;;;;5036675;28;20179;-68
2022/08/01 02:16:11;;;;;;;5.72;5.18;;;22.60;66.50;;;;;;5035101;28;20321;-70
2022/08/01 02:18:36;;;;;;;6.10;5.50;;;22.60;66.60;;;;;;5034528;28;20527;-71
2022/08/01 02:21:03;;;;;;;6.60;5.63;;;22.60;66.60;;;;;;5052420;28;20290;-70
2022/08/01 02:23:32;;;;;;;6.32;5.45;;;22.60;66.60;;;;;;5034122;28;20198;-70
2022/08/01 02:25:57;;;;;;;6.20;4.55;;;22.60;66.60;;;;;;5052440;28;20254;-70
2022/08/01 02:28:32;;;;;;;5.32;4.68;;;22.60;66.70;;;;;;5034892;28;20262;-68
2022/08/01 02:31:01;;;;;;;6.20;5.60;;;22.60;66.60;;;;;;5034235;28;20205;-68
2022/08/01 02:33:31;;;;;;;5.43;4.93;;;22.60;66.70;;;;;;5052579;28;20253;-69
2022/08/01 02:35:58;;;;;;;5.47;4.97;;;22.60;66.60;;;;;;5036314;28;20211;-69
2022/08/01 02:38:25;;;;;;;5.13;4.55;;;22.60;66.60;;;;;;5038186;28;20175;-70
2022/08/01 02:40:50;;;;;;;5.38;4.90;;;22.60;66.70;;;;;;5038919;28;20175;-70
2022/08/01 02:43:18;;;;;;;5.15;4.65;;;22.60;66.60;;;;;;5056610;28;20174;-70
2022/08/01 02:45:45;;;;;;;4.95;4.45;;;22.60;66.60;;;;;;5037984;28;20175;-70
2022/08/01 02:48:12;;;;;;;5.63;5.00;;;22.60;66.60;;;;;;5038798;28;20245;-69
2022/08/01 02:50:38;;;;;;;5.13;4.45;;;22.60;66.60;;;;;;5039037;28;20254;-69
2022/08/01 02:53:04;;;;;;;5.03;4.55;;;22.60;66.70;;;;;;5055458;28;20279;-69
2022/08/01 02:55:29;;;;;;;5.07;3.97;;;22.60;66.70;;;;;;5056106;28;20253;-69
2022/08/01 02:57:55;;;;;;;4.55;4.10;;;22.50;66.70;;;;;;5056127;28;20172;-69
2022/08/01 03:00:21;;;;;;;5.07;4.65;;;22.60;66.80;;;;;;5055540;28;20264;-69
2022/08/01 03:02:48;;;;;;;5.05;4.47;;;22.60;66.70;;;;;;5038257;28;20213;-70
2022/08/01 03:05:13;;;;;;;6.13;4.57;;;22.60;66.80;;;;;;5038553;28;20186;-69
2022/08/01 03:07:39;;;;;;;5.07;4.20;;;22.60;66.80;;;;;;5037636;28;20167;-70
2022/08/01 03:10:05;;;;;;;4.85;4.32;;;22.60;66.80;;;;;;5055858;28;20171;-69
2022/08/01 03:12:31;;;;;;;3.63;3.33;;;22.50;66.80;;;;;;5038245;28;20202;-69
2022/08/01 03:14:57;;;;;;;4.20;3.80;;;22.50;66.80;;;;;;5055061;28;20190;-69
2022/08/01 03:17:24;;;;;;;4.38;3.85;;;22.50;66.90;;;;;;5055858;28;20607;-70
2022/08/01 03:19:50;;;;;;;3.90;3.60;;;22.50;66.90;;;;;;5037353;28;20175;-71
2022/08/01 03:22:15;;;;;;;3.70;3.40;;;22.60;67.70;;;;;;5037951;28;20194;-71
2022/08/01 03:24:42;;;;;;;3.80;3.50;;;22.50;66.70;;;;;;5038233;28;20629;-70
2022/08/01 03:27:08;;;;;;;3.80;3.50;;;22.50;66.80;;;;;;5037487;28;20177;-70
2022/08/01 03:29:33;;;;;;;3.53;3.00;;;22.50;66.70;;;;;;5038045;28;20266;-68
2022/08/01 03:32:00;;;;;;;3.55;3.25;;;22.50;66.80;;;;;;5037638;28;20255;-68
2022/08/01 03:34:26;;;;;;;3.42;3.13;;;22.50;66.70;;;;;;5054906;28;20175;-69
2022/08/01 03:36:57;;;;;;;4.15;3.75;;;22.50;66.70;;;;;;5055299;28;20217;-69
2022/08/01 03:39:25;;;;;;;4.22;3.28;;;22.50;66.80;;;;;;5021648;28;20574;-69
2022/08/01 03:41:59;;;;;;;3.20;2.92;;;22.50;66.80;;;;;;5036828;28;20214;-70
2022/08/01 03:44:27;;;;;;;2.83;2.60;;;22.50;66.80;;;;;;5037967;28;20245;-70
2022/08/01 03:47:04;;;;;;;3.15;2.63;;;22.50;66.70;;;;;;5036701;28;20604;-71
2022/08/01 03:49:34;;;;;;;4.82;3.20;;;22.50;66.90;;;;;;5036837;28;20256;-69
2022/08/01 03:52:02;;;;;;;2.55;2.35;;;22.50;66.90;;;;;;5037376;28;20178;-69
2022/08/01 03:54:30;;;;;;;3.25;3.03;;;22.50;66.80;;;;;;5037473;28;20179;-69
2022/08/01 03:56:55;;;;;;;3.13;2.83;;;22.50;67.00;;;;;;5054352;28;20302;-69
2022/08/01 03:59:21;;;;;;;2.60;2.15;;;22.50;66.80;;;;;;5055172;28;20284;-69
2022/08/01 04:01:46;;;;;;;2.65;2.45;;;22.50;66.70;;;;;;5037288;28;20258;-69
2022/08/01 04:04:12;;;;;;;2.60;2.40;;;22.50;66.70;;;;;;5036944;28;20179;-69
2022/08/01 04:06:39;;;;;;;2.47;2.28;;;22.50;66.70;;;;;;5037245;28;20187;-69
2022/08/01 04:09:04;;;;;;;3.05;2.33;;;22.50;66.80;;;;;;5054221;28;20175;-68
2022/08/01 04:11:29;;;;;;;2.00;1.90;;;22.50;66.70;;;;;;5037129;28;20182;-68
2022/08/01 04:13:55;;;;;;;2.60;2.40;;;22.50;66.80;;;;;;5036914;28;20554;-69
2022/08/01 04:16:21;;;;;;;2.67;2.22;;;22.50;66.70;;;;;;5053967;28;20211;-70
2022/08/01 04:18:47;;;;;;;2.10;1.90;;;22.50;66.70;;;;;;5054801;28;20175;-70
2022/08/01 04:21:13;;;;;;;2.20;2.08;;;22.50;66.70;;;;;;5054952;28;20182;-70
2022/08/01 04:23:40;;;;;;;2.40;1.98;;;22.50;66.80;;;;;;5054104;28;20178;-70
2022/08/01 04:26:05;;;;;;;2.13;2.00;;;22.50;66.80;;;;;;5036730;28;20183;-70
2022/08/01 04:28:32;;;;;;;2.40;2.17;;;22.50;66.70;;;;;;5036773;28;20179;-69
2022/08/01 04:30:57;;;;;;;2.08;1.88;;;22.50;66.70;;;;;;5035747;28;20179;-68
2022/08/01 04:33:23;;;;;;;2.58;2.38;;;22.50;66.70;;;;;;5036995;28;20179;-69
2022/08/01 04:35:49;;;;;;;1.92;1.83;;;22.50;66.60;;;;;;5036661;28;20216;-70
2022/08/01 04:38:17;;;;;;;2.42;2.20;;;22.50;66.70;;;;;;5036072;28;20265;-69
2022/08/01 04:40:42;;;;;;;2.22;2.03;;;22.50;66.60;;;;;;5036870;28;20278;-71
2022/08/01 04:43:08;;;;;;;1.60;1.50;;;22.50;66.60;;;;;;5036676;28;20202;-71
2022/08/01 04:45:34;;;;;;;2.30;2.10;;;22.50;66.60;;;;;;5053471;28;20225;-71
2022/08/01 04:47:59;;;;;;;1.90;1.80;;;22.40;66.70;;;;;;5036310;28;20209;-71
2022/08/01 04:50:25;;;;;;;2.10;2.00;;;22.50;66.70;;;;;;5036400;28;20266;-69
2022/08/01 04:52:51;;;;;;;2.20;2.00;;;22.50;66.70;;;;;;5053591;28;20203;-69
2022/08/01 04:55:17;;;;;;;2.42;1.90;;;22.50;66.70;;;;;;5053949;28;20265;-70
2022/08/01 04:57:43;;;;;;;1.92;1.83;;;22.50;66.70;;;;;;5054092;28;20179;-70
2022/08/01 05:00:10;;;;;;;2.25;1.77;;;22.50;66.60;;;;;;5053038;28;20645;-69
2022/08/01 05:02:35;;;;;;;2.55;1.98;;;22.50;66.60;;;;;;5054127;28;20270;-70
2022/08/01 05:05:01;;;;;;;1.65;1.55;;;22.50;66.70;;;;;;5053924;28;20261;-70
2022/08/01 05:07:27;;;;;;;2.28;1.90;;;22.50;66.60;;;;;;5053121;28;20232;-69
2022/08/01 05:09:52;;;;;;;2.60;1.90;;;22.50;66.70;;;;;;5053686;28;20171;-70
2022/08/01 05:12:18;;;;;;;1.92;1.80;;;22.50;66.60;;;;;;5053025;28;20178;-69
2022/08/01 05:14:43;;;;;;;1.48;1.38;;;22.50;66.70;;;;;;5053505;28;20175;-69
2022/08/01 05:17:09;;;;;;;1.70;1.60;;;22.50;66.70;;;;;;5053829;28;20211;-70
2022/08/01 05:19:35;;;;;;;1.85;1.70;;;22.50;66.70;;;;;;5053030;28;20178;-70
2022/08/01 05:22:01;;;;;;;2.28;2.15;;;22.50;66.70;;;;;;5053359;28;20672;-71
2022/08/01 05:24:28;;;;;;;2.03;1.83;;;22.50;66.70;;;;;;5053537;28;20175;-70
2022/08/01 05:26:55;;;;;;;1.67;1.58;;;22.50;66.70;;;;;;5052630;28;20179;-70
2022/08/01 05:29:21;;;;;;;1.73;1.63;;;22.50;66.80;;;;;;5053481;28;20526;-69
2022/08/01 05:31:46;;;;;;;3.30;1.85;;;22.50;66.70;;;;;;5053310;28;20304;-69
2022/08/01 05:34:12;;;;;;;2.28;1.67;;;22.40;66.70;;;;;;5035065;28;20167;-69
2022/08/01 05:36:37;;;;;;;1.70;1.60;;;22.50;66.70;;;;;;5053324;28;20268;-69
2022/08/01 05:39:03;;;;;;;1.45;1.35;;;22.50;66.70;;;;;;5053141;28;20577;-69
2022/08/01 05:41:29;;;;;;;2.00;1.83;;;22.50;66.70;;;;;;5052432;28;20280;-70
2022/08/01 05:43:54;;;;;;;2.00;1.90;;;22.40;66.90;;;;;;5035321;28;20642;-71
2022/08/01 05:46:20;;;;;;;2.30;2.10;;;22.40;66.70;;;;;;5053237;28;20178;-71
2022/08/01 05:48:45;;;;;;;2.00;1.90;;;22.40;66.80;;;;;;5052183;28;20229;-70
2022/08/01 05:51:11;;;;;;;2.20;1.98;;;22.40;66.90;;;;;;5053204;28;20249;-69
2022/08/01 05:53:36;;;;;;;2.10;2.00;;;22.40;66.80;;;;;;5053008;28;20178;-69
2022/08/01 05:56:02;;;;;;;1.70;1.60;;;22.40;66.90;;;;;;5052058;28;20203;-70
2022/08/01 05:58:28;;;;;;;2.15;1.90;;;22.40;66.90;;;;;;5052826;28;20315;-69
2022/08/01 06:00:53;;;;;;;1.75;1.65;;;22.40;66.90;;;;;;5052947;28;20175;-69
2022/08/01 06:03:19;;;;;;;2.25;1.95;;;22.40;66.90;;;;;;5052302;28;20638;-70
2022/08/01 06:05:44;;;;;;;2.05;1.77;;;22.40;66.90;;;;;;5052768;28;20190;-70
2022/08/01 06:08:10;;;;;;;1.95;1.75;;;22.40;66.80;;;;;;5052886;28;20175;-69
2022/08/01 06:10:35;;;;;;;2.00;1.90;;;22.40;66.80;;;;;;5051514;28;20171;-68
2022/08/01 06:13:02;;;;;;;1.90;1.80;;;22.50;66.80;;;;;;5052584;28;20171;-68
2022/08/01 06:15:29;;;;;;;1.92;1.83;;;22.50;66.80;;;;;;5052476;28;20555;-70
2022/08/01 06:17:54;;;;;;;1.50;1.40;;;22.50;66.70;;;;;;5051969;28;20183;-71
2022/08/01 06:20:20;;;;;;;1.52;1.42;;;22.50;66.70;;;;;;5052616;28;20656;-70
2022/08/01 06:22:46;;;;;;;2.20;1.50;;;22.50;66.70;;;;;;5051862;28;20638;-70
2022/08/01 06:25:11;;;;;;;1.63;1.52;;;22.50;66.70;;;;;;5052665;28;20198;-69
2022/08/01 06:27:37;;;;;;;1.50;1.40;;;22.50;66.70;;;;;;5052435;28;20278;-69
2022/08/01 06:30:03;;;;;;;1.67;1.40;;;22.50;66.60;;;;;;5051913;28;20705;-69
2022/08/01 06:32:29;;;;;;;1.33;1.23;;;22.50;66.60;;;;;;5052344;28;20303;-68
2022/08/01 06:34:55;;;;;;;1.75;1.48;;;22.50;66.60;;;;;;5052358;28;20633;-69
2022/08/01 06:37:21;;;;;;;2.55;1.67;;;22.50;66.60;;;;;;5051577;28;20214;-69
2022/08/01 06:39:46;;;;;;;1.58;1.13;;;22.50;66.50;;;;;;5052181;28;20183;-69
2022/08/01 06:42:14;;;;;;;1.27;1.15;;;22.50;66.50;;;;;;5052455;28;20174;-71
2022/08/01 06:44:40;;;;;;;1.10;1.10;;;22.50;66.40;;;;;;5051902;28;20175;-70
2022/08/01 06:47:05;;;;;;;1.45;1.30;;;22.60;66.50;;;;;;5052150;28;20287;-68
2022/08/01 06:49:31;;;;;;;1.40;1.30;;;22.50;66.30;;;;;;5052322;28;20598;-67
2022/08/01 06:51:56;;;;;;;1.42;1.00;;;22.50;66.20;;;;;;5051414;28;20186;-68
2022/08/01 06:54:22;;;;;;;1.45;1.35;;;22.60;66.20;;;;;;5052139;28;20171;-69
2022/08/01 06:56:47;;;;;;;1.50;1.40;;;22.60;66.20;;;;;;5051916;28;20661;-69
2022/08/01 06:59:13;;;;;;;2.65;2.00;;;22.60;66.20;;;;;;5051751;28;20543;-70
2022/08/01 07:01:38;;;;;;;1.58;1.48;;;22.60;66.20;;;;;;5052331;28;20540;-68
2022/08/01 07:04:04;;;;;;;2.03;1.23;;;22.60;66.40;;;;;;5052345;28;20175;-72
2022/08/01 07:06:29;;;;;;;11.93;1.95;;;22.60;66.20;;;;;;5051360;28;20175;-68
2022/08/01 07:08:55;;;;;;;1.70;1.25;;;22.60;66.20;;;;;;5051872;28;20642;-68
2022/08/01 07:11:21;;;;;;;1.73;1.50;;;22.60;66.30;;;;;;5051884;28;20236;-68
2022/08/01 07:13:47;;;;;;;4.30;1.65;;;22.60;66.40;;;;;;5051227;28;20319;-68
2022/08/01 07:16:16;;;;;;;3.22;1.50;;;22.60;66.40;;;;;;5052243;28;20294;-69
2022/08/01 07:18:41;;;;;;;5.00;1.48;;;22.60;66.40;;;;;;5052204;28;20178;-70
2022/08/01 07:21:07;;;;;;;1.65;1.40;;;22.60;66.30;;;;;;5051200;28;20175;-70
2022/08/01 07:23:33;;;;;;;3.17;1.33;;;22.60;66.30;;;;;;5055684;28;20281;-70
2022/08/01 07:25:58;;;;;;;3.17;1.27;;;22.60;66.30;;;;;;5054709;28;20775;-69
2022/08/01 07:28:24;;;;;;;2.60;1.42;;;22.60;66.30;;;;;;5055888;28;20626;-68
2022/08/01 07:30:49;;;;;;;3.47;1.38;;;22.60;66.30;;;;;;5055379;28;20179;-69
2022/08/01 07:33:15;;;;;;;1.40;1.30;;;22.60;66.30;;;;;;5054866;28;20174;-68
2022/08/01 07:35:41;;;;;;;1.40;1.30;;;22.60;66.20;;;;;;5055464;28;20246;-69
2022/08/01 07:38:07;;;;;;;3.42;1.55;;;22.60;66.20;;;;;;5055374;28;20270;-69
2022/08/01 07:40:32;;;;;;;4.28;1.40;;;22.60;66.20;;;;;;5054685;28;20217;-69
2022/08/01 07:42:58;;;;;;;3.85;1.70;;;22.60;66.20;;;;;;5055460;28;20175;-69
2022/08/01 07:45:23;;;;;;;2.53;1.25;;;22.60;66.20;;;;;;5055259;28;20620;-70
2022/08/01 07:47:49;;;;;;;3.60;1.48;;;22.60;66.20;;;;;;5054550;28;20677;-69
2022/08/01 07:50:15;;;;;;;1.35;1.10;;;22.60;66.10;;;;;;5055434;28;20178;-69
2022/08/01 07:52:40;;;;;;;2.38;1.20;;;22.60;66.20;;;;;;5055272;28;20250;-69
2022/08/01 07:55:06;;;;;;;2.35;1.40;;;22.60;66.20;;;;;;5054253;28;20181;-69
2022/08/01 07:57:32;;;;;;;3.50;1.50;;;22.60;66.20;;;;;;5054846;28;21021;-69
2022/08/01 07:59:57;;;;;;;4.30;1.30;;;22.60;66.20;;;;;;5055062;28;20184;-69
2022/08/01 08:02:23;;;;;;;1.38;1.27;;;22.60;66.30;;;;;;5054484;28;20175;-69
2022/08/01 08:04:49;;;;;;;2.08;1.25;;;22.60;66.20;;;;;;5055088;28;20167;-70
2022/08/01 08:07:14;;;;;;;3.85;1.20;;;22.60;66.20;;;;;;5055106;28;20167;-69
2022/08/01 08:09:40;;;;;;;1.95;1.05;;;22.60;66.10;;;;;;5054278;28;20171;-68
2022/08/01 08:12:06;;;;;;;2.15;1.20;;;22.60;66.20;;;;;;5054624;28;20584;-68
2022/08/01 08:14:31;;;;;;;2.58;1.20;;;22.60;66.20;;;;;;5054672;28;20566;-68
2022/08/01 08:16:57;;;;;;;1.35;1.25;;;22.60;66.10;;;;;;5053886;28;20214;-70
2022/08/01 08:19:22;;;;;;;1.45;1.15;;;22.60;66.10;;;;;;5054719;28;20175;-71
2022/08/01 08:21:48;;;;;;;1.70;1.25;;;22.60;66.10;;;;;;5054534;28;20171;-70
2022/08/01 08:24:19;;;;;;;1.55;1.00;;;22.60;66.10;;;;;;5053700;28;20198;-70
2022/08/01 08:26:46;;;;;;;2.85;1.30;;;22.60;66.10;;;;;;5054637;28;20186;-69
2022/08/01 08:29:11;;;;;;;3.15;1.20;;;22.60;66.10;;;;;;5054037;28;20179;-69
2022/08/01 08:31:37;;;;;;;1.83;1.15;;;22.60;66.10;;;;;;5054254;28;20276;-68
2022/08/01 08:34:02;;;;;;;1.77;1.20;;;22.60;66.10;;;;;;5053635;28;20320;-68
2022/08/01 08:36:28;;;;;;;1.88;1.27;;;22.60;66.00;;;;;;5053498;28;20203;-69
2022/08/01 08:38:54;;;;;;;1.40;0.95;;;22.60;66.10;;;;;;5054357;28;20182;-69
2022/08/01 08:41:20;;;;;;;2.67;1.38;;;22.60;66.10;;;;;;5054212;28;20175;-69
2022/08/01 08:43:45;;;;;;;1.25;1.15;;;22.60;66.00;;;;;;5035747;28;20183;-70
2022/08/01 08:46:12;;;;;;;1.85;1.40;;;22.70;66.00;;;;;;5036910;28;20179;-70
2022/08/01 08:48:40;;;;;;;0.88;0.88;;;22.70;66.90;;;;;;5036467;28;20171;-70
2022/08/01 08:51:05;;;;;;;2.05;1.40;;;22.70;66.00;;;;;;5053381;28;20183;-69
2022/08/01 08:53:31;;;;;;;1.27;1.13;;;22.70;66.00;;;;;;5036200;28;20174;-68
2022/08/01 08:55:57;;;;;;;2.13;1.13;;;22.70;66.00;;;;;;5054029;28;20306;-70
2022/08/01 08:58:22;;;;;;;1.25;1.10;;;22.60;65.90;;;;;;5035397;28;20171;-69
2022/08/01 09:00:48;;;;;;;1.48;1.38;;;22.60;66.00;;;;;;5036259;28;20175;-70
2022/08/01 09:03:13;;;;;;;1.50;1.20;;;22.60;66.00;;;;;;5036045;28;20584;-70
2022/08/01 09:05:38;;;;;;;2.17;1.17;;;22.60;66.10;;;;;;5035436;28;20179;-70
2022/08/01 09:08:07;;;;;;;1.40;1.30;;;22.60;66.20;;;;;;5035866;28;20167;-69
2022/08/01 09:10:33;;;;;;;1.55;1.40;;;22.60;66.10;;;;;;5053992;28;20595;-69
2022/08/01 09:13:12;;;;;;;2.30;1.20;;;22.60;66.10;;;;;;5053186;28;20195;-69
2022/08/01 09:15:58;;;;;;;1.42;1.17;;;22.60;66.20;;;;;;5053981;28;20213;-70
2022/08/01 09:18:34;;;;;;;2.08;1.00;;;22.60;66.20;;;;;;5053003;28;20183;-70
2022/08/01 09:21:05;;;;;;;1.48;1.38;;;22.60;66.10;;;;;;5053556;28;20178;-70
2022/08/01 09:23:39;;;;;;;1.17;1.08;;;22.60;66.10;;;;;;5053582;28;20182;-70
2022/08/01 09:26:06;;;;;;;1.55;1.00;;;22.60;66.00;;;;;;5052630;28;20170;-69
2022/08/01 09:28:31;;;;;;;0.95;0.90;;;22.60;66.00;;;;;;5053377;28;20183;-67
2022/08/01 09:30:57;;;;;;;1.23;1.13;;;22.60;66.00;;;;;;5052854;28;20194;-67
2022/08/01 09:33:23;;;;;;;1.33;1.20;;;22.60;65.90;;;;;;5052829;28;20167;-67
2022/08/01 09:35:56;;;;;;;1.60;1.08;;;22.60;65.90;;;;;;5053119;28;20233;-68
2022/08/01 09:38:26;;;;;;;2.30;1.35;;;22.70;65.90;;;;;;5053198;28;20540;-70
2022/08/01 09:40:56;;;;;;;2.20;1.08;;;22.70;66.20;;;;;;5052402;28;20179;-69
2022/08/01 09:43:25;;;;;;;1.45;1.10;;;22.70;66.20;;;;;;5052873;28;20175;-70
2022/08/01 09:45:51;;;;;;;6.15;1.42;;;22.70;66.30;;;;;;5051952;28;20685;-68
2022/08/01 09:48:17;;;;;;;4.32;1.70;;;22.70;66.50;;;;;;5052409;28;20251;-69
2022/08/01 09:50:43;;;;;;;2.97;1.45;;;22.70;66.50;;;;;;5053075;28;20595;-68
2022/08/01 09:53:12;;;;;;;2.08;1.13;;;22.70;66.40;;;;;;5053036;28;20175;-69
2022/08/01 09:55:38;;;;;;;5.28;1.23;;;22.80;66.50;;;;;;5052056;28;20766;-68
2022/08/01 09:58:04;;;;;;;3.25;1.20;;;22.80;66.30;;;;;;5052657;28;20186;-72
2022/08/01 10:00:30;;;;;;;2.25;1.50;;;22.80;66.30;;;;;;5053016;28;20202;-72
2022/08/01 10:02:56;;;;;;;1.67;1.15;;;22.80;66.40;;;;;;5052146;28;20302;-72
2022/08/01 10:05:34;;;;;;;2.30;1.40;;;22.70;66.10;;;;;;5052697;28;20203;-72
2022/08/01 10:08:02;;;;;;;1.95;1.13;;;22.70;66.20;;;;;;5051958;28;20181;-71
2022/08/01 10:10:28;;;;;;;1.77;1.20;;;22.70;66.30;;;;;;5052668;28;20233;-70
2022/08/01 10:12:54;;;;;;;2.70;1.50;;;22.70;66.20;;;;;;5052440;28;20571;-70
2022/08/01 10:15:20;;;;;;;1.88;1.40;;;22.80;66.40;;;;;;5052005;28;20186;-71
2022/08/01 10:17:54;;;;;;;2.67;1.60;;;22.80;66.30;;;;;;5034663;28;20174;-72
2022/08/01 10:20:20;;;;;;;2.15;1.38;;;22.80;66.20;;;;;;5052461;28;20649;-72
2022/08/01 10:22:46;;;;;;;1.88;1.15;;;22.80;66.10;;;;;;5051791;28;20634;-72
2022/08/01 10:25:12;;;;;;;2.33;1.30;;;22.80;66.10;;;;;;5034839;28;20171;-72
2022/08/01 10:27:38;;;;;;;3.28;1.58;;;22.80;66.10;;;;;;5035216;28;20179;-71
2022/08/01 10:30:04;;;;;;;2.67;1.48;;;22.80;66.30;;;;;;5034005;28;20179;-71
2022/08/01 10:32:31;;;;;;;1.67;1.40;;;22.80;66.40;;;;;;5052303;28;20231;-69
2022/08/01 10:34:56;;;;;;;4.22;1.58;;;22.80;66.50;;;;;;5034622;28;20526;-70
2022/08/01 10:37:22;;;;;;;1.55;1.25;;;22.90;66.30;;;;;;5051646;28;20214;-71
2022/08/01 10:39:48;;;;;;;2.95;1.58;;;22.90;66.40;;;;;;5052150;28;20626;-71
2022/08/01 10:42:13;;;;;;;2.50;1.33;;;22.90;66.50;;;;;;5034535;28;20171;-72
2022/08/01 10:44:39;;;;;;;3.20;1.75;;;23.00;66.30;;;;;;5051513;28;20175;-71
2022/08/01 10:47:12;;;;;;;3.50;1.48;;;22.90;66.20;;;;;;5051939;28;20179;-68
2022/08/01 10:49:45;;;;;;;3.40;1.13;;;22.90;66.20;;;;;;5034270;28;20215;-69
2022/08/01 10:52:17;;;;;;;3.72;1.45;;;22.90;66.40;;;;;;5033736;28;20175;-71
2022/08/01 10:54:42;;;;;;;4.63;1.55;;;22.90;66.30;;;;;;5052278;28;20233;-70
2022/08/01 10:57:08;;;;;;;4.97;1.70;;;22.90;66.40;;;;;;5053234;28;20218;-70
2022/08/01 10:59:39;;;;;;;4.70;2.13;;;22.90;66.30;;;;;;5056119;28;20229;-73
2022/08/01 11:02:05;;;;;;;4.55;1.60;;;22.90;66.40;;;;;;5056086;28;20649;-70
2022/08/01 11:04:57;;;;;;;3.22;1.38;;;23.00;66.50;;;;;;5055389;28;20171;-72
2022/08/01 11:07:45;;;;;;;4.00;1.50;;;23.00;66.30;;;;;;5055958;28;20641;-70
2022/08/01 11:10:36;;;;;;;2.50;1.35;;;23.00;66.10;;;;;;5038516;28;20270;-70
2022/08/01 11:13:05;;;;;;;4.05;1.70;;;23.10;66.00;;;;;;5040070;28;20729;-67
2022/08/01 11:15:31;;;;;;;4.43;2.00;;;23.10;65.90;;;;;;5055724;28;20586;-69
2022/08/01 11:17:57;;;;;;;8.32;2.17;;;23.00;65.90;;;;;;5056065;28;20167;-70
2022/08/01 11:20:26;;;;;;;5.07;1.50;;;23.20;66.00;;;;;;5037450;28;20649;-71
2022/08/01 11:23:00;;;;;;;6.25;1.63;;;23.20;65.90;;;;;;5055662;28;20183;-71
2022/08/01 11:25:38;;;;;;;7.70;1.75;;;23.20;65.90;;;;;;5054885;28;20170;-70
2022/08/01 11:28:16;;;;;;;3.15;1.77;;;23.20;65.70;;;;;;5055897;28;20185;-71
2022/08/01 11:30:48;;;;;;;2.30;1.50;;;23.20;65.70;;;;;;5055820;28;20232;-68
2022/08/01 11:33:15;;;;;;;3.58;1.73;;;23.20;65.60;;;;;;5054979;28;20286;-67
2022/08/01 11:36:21;;;;;;;4.10;1.70;;;23.20;65.70;;;;;;5037778;28;20237;-67
2022/08/01 11:38:48;;;;;;;3.88;1.60;;;23.30;65.60;;;;;;5055464;28;20178;-67
2022/08/01 11:41:13;;;;;;;3.17;1.70;;;23.30;65.60;;;;;;5054784;28;20264;-68
2022/08/01 11:44:00;;;;;;;3.78;1.77;;;23.30;65.60;;;;;;5055274;28;20205;-69
2022/08/01 11:46:51;;;;;;;3.55;1.80;;;23.30;65.50;;;;;;5054595;28;20207;-69
2022/08/01 11:49:44;;;;;;;1.90;1.70;;;23.30;65.50;;;;;;5055401;28;20202;-68
2022/08/01 11:52:11;;;;;;;2.42;1.50;;;23.20;65.50;;;;;;5055245;28;20183;-67
2022/08/01 11:54:44;;;;;;;4.57;1.50;;;23.20;65.60;;;;;;5054488;28;20226;-67
2022/08/01 11:57:10;;;;;;;3.28;1.65;;;23.20;65.60;;;;;;5055110;28;20596;-67
2022/08/01 11:59:48;;;;;;;3.10;1.60;;;23.10;65.50;;;;;;5054980;28;20586;-68
2022/08/01 12:02:33;;;;;;;2.08;1.70;;;23.20;65.50;;;;;;5054591;28;20179;-68
2022/08/01 12:05:00;;;;;;;1.63;1.40;;;23.20;65.40;;;;;;5054919;28;20175;-67
2022/08/01 12:07:27;;;;;;;3.47;2.17;;;23.20;65.40;;;;;;5054340;28;20186;-68
2022/08/01 12:10:16;;;;;;;2.72;1.30;;;23.20;65.20;;;;;;5053939;28;20203;-67
2022/08/01 12:12:52;;;;;;;2.95;1.63;;;23.20;65.10;;;;;;5047382;28;20183;-67
2022/08/01 12:15:19;;;;;;;2.97;1.40;;;23.20;64.90;;;;;;5054107;28;20254;-68
2022/08/01 12:17:49;;;;;;;2.42;1.92;;;23.20;64.80;;;;;;5054632;28;20720;-69
2022/08/01 12:20:18;;;;;;;3.38;1.75;;;23.20;64.70;;;;;;5054997;28;20178;-68
2022/08/01 12:22:44;;;;;;;6.65;1.77;;;23.20;64.60;;;;;;5053894;28;20182;-67
2022/08/01 12:25:16;;;;;;;18.05;1.85;;;23.30;64.40;;;;;;5054806;28;20261;-69
2022/08/01 12:27:43;;;;;;;3.75;1.70;;;23.30;65.30;;;;;;5054886;28;20179;-67
2022/08/01 12:30:16;;;;;;;6.70;1.60;;;23.30;64.30;;;;;;5053959;28;20175;-67
2022/08/01 12:32:43;;;;;;;12.23;2.33;;;23.30;64.10;;;;;;5054498;28;20586;-68
2022/08/01 12:35:10;;;;;;;14.15;2.08;;;23.30;64.20;;;;;;5054696;28;20179;-67
2022/08/01 12:37:37;;;;;;;2.58;1.50;;;23.30;64.00;;;;;;5053771;28;20221;-67
2022/08/01 12:40:14;;;;;;;4.20;2.17;;;23.30;63.90;;;;;;5054353;28;20179;-68
2022/08/01 12:42:47;;;;;;;3.38;1.52;;;23.30;63.80;;;;;;5052751;28;20186;-67
2022/08/01 12:45:33;;;;;;;5.05;1.65;;;23.30;63.60;;;;;;5053787;28;20545;-68
2022/08/01 12:48:00;;;;;;;10.27;2.17;;;23.20;63.40;;;;;;5038959;28;20191;-68